Time;durP1;ratioP1;P1;durP2;ratioP2;P2;SDS_P1;SDS_P2;PMS_P1;PMS_P2;Temp;Humidity;BMP_temperature;BMP_pressure;BME280_temperature;BME280_humidity;BME280_pressure;Samples;Min_cycle;Max_cycle;Signal;HPM_P1;HPM_P2
2023/04/03 00:02:14;;;;;;;5.50;5.28;;;;;;;;;;4248019;28;20080;-59
2023/04/03 00:04:35;;;;;;;4.88;4.65;;;;;;;;;;4244879;28;20045;-59
2023/04/03 00:06:55;;;;;;;4.45;4.28;;;;;;;;;;4247805;28;20076;-59
2023/04/03 00:09:15;;;;;;;5.03;4.75;;;;;;;;;;4248035;28;20053;-59
2023/04/03 00:11:35;;;;;;;5.13;4.90;;;;;;;;;;4247854;28;20046;-59
2023/04/03 00:13:55;;;;;;;4.85;4.43;;;;;;;;;;4243140;28;20077;-59
2023/04/03 00:16:15;;;;;;;5.45;5.35;;;;;;;;;;4248874;28;20080;-59
2023/04/03 00:18:36;;;;;;;6.07;5.65;;;;;;;;;;4250100;28;20070;-59
2023/04/03 00:20:56;;;;;;;6.13;5.85;;;;;;;;;;4247047;28;20389;-59
2023/04/03 00:23:17;;;;;;;5.63;5.35;;;;;;;;;;4247958;28;20076;-59
2023/04/03 00:25:37;;;;;;;6.07;5.97;;;;;;;;;;4250407;28;20369;-59
2023/04/03 00:27:57;;;;;;;5.40;5.20;;;;;;;;;;4248399;28;20226;-59
2023/04/03 00:30:18;;;;;;;4.78;4.35;;;;;;;;;;4248905;28;20235;-59
2023/04/03 00:32:39;;;;;;;4.55;4.45;;;;;;;;;;4248736;27;20042;-59
2023/04/03 00:34:59;;;;;;;5.65;5.55;;;;;;;;;;4247762;28;20050;-59
2023/04/03 00:37:19;;;;;;;6.30;6.20;;;;;;;;;;4246997;28;20043;-59
2023/04/03 00:39:39;;;;;;;4.05;3.85;;;;;;;;;;4245906;28;20042;-58
2023/04/03 00:41:59;;;;;;;4.93;4.82;;;;;;;;;;4252807;28;20046;-59
2023/04/03 00:44:39;;;;;;;3.78;3.67;;;;;;;;;;4245830;28;20046;-59
2023/04/03 00:47:00;;;;;;;4.65;4.55;;;;;;;;;;4251414;28;20151;-60
2023/04/03 00:49:20;;;;;;;5.30;5.03;;;;;;;;;;4249879;28;20407;-59
2023/04/03 00:51:40;;;;;;;4.55;4.45;;;;;;;;;;4244303;28;20046;-59
2023/04/03 00:54:03;;;;;;;4.53;4.22;;;;;;;;;;4250298;28;20394;-59
2023/04/03 00:56:25;;;;;;;6.10;5.32;;;;;;;;;;4252294;28;20077;-59
2023/04/03 00:58:56;;;;;;;4.22;4.13;;;;;;;;;;4252558;28;20041;-59
2023/04/03 01:01:19;;;;;;;4.60;4.35;;;;;;;;;;4252982;28;20043;-58
2023/04/03 01:03:39;;;;;;;4.63;4.28;;;;;;;;;;4244439;28;20075;-57
2023/04/03 01:05:59;;;;;;;4.30;4.10;;;;;;;;;;4247501;28;20246;-58
2023/04/03 01:08:20;;;;;;;5.45;5.18;;;;;;;;;;4249796;28;20038;-58
2023/04/03 01:10:40;;;;;;;5.25;5.05;;;;;;;;;;4239750;28;20059;-57
2023/04/03 01:13:01;;;;;;;4.32;3.95;;;;;;;;;;4248058;28;20046;-58
2023/04/03 01:15:23;;;;;;;4.28;4.18;;;;;;;;;;4246512;28;20130;-58
2023/04/03 01:17:46;;;;;;;3.67;3.42;;;;;;;;;;4248417;28;20087;-58
2023/04/03 01:20:26;;;;;;;4.53;4.43;;;;;;;;;;4246968;28;20100;-58
2023/04/03 01:22:50;;;;;;;3.92;3.83;;;;;;;;;;4249007;28;20100;-58
2023/04/03 01:25:10;;;;;;;4.82;4.40;;;;;;;;;;4244446;28;20042;-58
2023/04/03 01:27:30;;;;;;;4.55;4.45;;;;;;;;;;4247573;28;20147;-58
2023/04/03 01:29:51;;;;;;;4.53;4.38;;;;;;;;;;4248692;28;20086;-58
2023/04/03 01:32:11;;;;;;;4.40;4.30;;;;;;;;;;4248246;28;20074;-58
2023/04/03 01:34:31;;;;;;;4.05;3.95;;;;;;;;;;4246902;28;20062;-58
2023/04/03 01:36:52;;;;;;;3.58;3.47;;;;;;;;;;4246821;27;20042;-58
2023/04/03 01:39:12;;;;;;;4.70;4.60;;;;;;;;;;4247560;28;20381;-58
2023/04/03 01:41:33;;;;;;;4.82;4.60;;;;;;;;;;4245788;28;20231;-58
2023/04/03 01:43:53;;;;;;;3.28;3.15;;;;;;;;;;4243958;28;20361;-57
2023/04/03 01:46:13;;;;;;;4.80;4.70;;;;;;;;;;4244837;28;20051;-58
2023/04/03 01:48:34;;;;;;;4.82;4.60;;;;;;;;;;4245084;28;20362;-58
2023/04/03 01:50:55;;;;;;;6.30;5.85;;;;;;;;;;4241891;28;20051;-57
2023/04/03 01:53:15;;;;;;;4.93;4.68;;;;;;;;;;4243843;28;20374;-57
2023/04/03 01:55:35;;;;;;;4.57;4.40;;;;;;;;;;4243809;28;20134;-58
2023/04/03 01:57:55;;;;;;;4.40;4.32;;;;;;;;;;4243759;28;20287;-58
2023/04/03 02:00:16;;;;;;;4.15;4.15;;;;;;;;;;4241869;28;20362;-58
2023/04/03 02:02:36;;;;;;;4.80;4.70;;;;;;;;;;4242850;28;20317;-58
2023/04/03 02:04:56;;;;;;;4.32;4.13;;;;;;;;;;4243809;28;20047;-58
2023/04/03 02:07:17;;;;;;;4.95;4.75;;;;;;;;;;4242158;28;20058;-58
2023/04/03 02:09:37;;;;;;;5.03;4.82;;;;;;;;;;4243072;28;20242;-58
2023/04/03 02:11:57;;;;;;;4.47;4.38;;;;;;;;;;4249925;28;20078;-58
2023/04/03 02:14:17;;;;;;;4.78;4.13;;;;;;;;;;4251828;28;20088;-58
2023/04/03 02:16:38;;;;;;;4.30;4.28;;;;;;;;;;4245554;28;20232;-58
2023/04/03 02:18:58;;;;;;;3.70;3.60;;;;;;;;;;4242954;28;20227;-58
2023/04/03 02:21:18;;;;;;;4.40;4.22;;;;;;;;;;4249061;28;20085;-58
2023/04/03 02:23:38;;;;;;;4.68;4.50;;;;;;;;;;4248432;28;20080;-58
2023/04/03 02:26:06;;;;;;;3.95;3.92;;;;;;;;;;4247082;28;20097;-58
2023/04/03 02:28:26;;;;;;;4.68;4.57;;;;;;;;;;4242492;28;20296;-58
2023/04/03 02:30:47;;;;;;;3.13;3.03;;;;;;;;;;4249001;28;20046;-58
2023/04/03 02:33:07;;;;;;;4.82;4.82;;;;;;;;;;4246447;28;20365;-58
2023/04/03 02:35:28;;;;;;;3.72;3.70;;;;;;;;;;4248583;28;20092;-58
2023/04/03 02:37:48;;;;;;;3.80;3.60;;;;;;;;;;4241632;28;20054;-58
2023/04/03 02:40:09;;;;;;;5.18;4.88;;;;;;;;;;4245597;28;20046;-58
2023/04/03 02:42:29;;;;;;;3.40;3.40;;;;;;;;;;4246741;28;20370;-58
2023/04/03 02:44:49;;;;;;;3.20;3.20;;;;;;;;;;4247340;28;20054;-58
2023/04/03 02:47:10;;;;;;;2.75;2.65;;;;;;;;;;4228814;28;20415;-58
2023/04/03 02:49:30;;;;;;;3.75;3.65;;;;;;;;;;4247267;28;20038;-58
2023/04/03 02:51:51;;;;;;;3.42;3.33;;;;;;;;;;4243272;28;20288;-58
2023/04/03 02:54:11;;;;;;;3.05;3.05;;;;;;;;;;4245881;28;20043;-58
2023/04/03 02:56:31;;;;;;;3.55;3.55;;;;;;;;;;4251694;27;20243;-58
2023/04/03 02:58:52;;;;;;;2.90;2.88;;;;;;;;;;4247264;28;20054;-58
2023/04/03 03:01:13;;;;;;;2.95;2.95;;;;;;;;;;4241818;28;20139;-58
2023/04/03 03:03:34;;;;;;;3.25;3.15;;;;;;;;;;4246981;28;20039;-58
2023/04/03 03:06:11;;;;;;;2.97;2.65;;;;;;;;;;4247369;28;20069;-58
2023/04/03 03:08:32;;;;;;;3.38;3.38;;;;;;;;;;4247129;28;20104;-58
2023/04/03 03:10:52;;;;;;;3.20;3.20;;;;;;;;;;4248289;28;20051;-58
2023/04/03 03:13:12;;;;;;;2.53;2.53;;;;;;;;;;4249521;28;20066;-59
2023/04/03 03:15:32;;;;;;;3.38;3.38;;;;;;;;;;4248385;28;20117;-58
2023/04/03 03:17:53;;;;;;;2.30;2.30;;;;;;;;;;4244056;28;20078;-58
2023/04/03 03:20:16;;;;;;;2.45;2.45;;;;;;;;;;4246604;28;20053;-58
2023/04/03 03:22:37;;;;;;;2.85;2.83;;;;;;;;;;4247821;28;20080;-58
2023/04/03 03:24:57;;;;;;;2.72;2.72;;;;;;;;;;4247822;28;20070;-58
2023/04/03 03:27:17;;;;;;;3.08;2.75;;;;;;;;;;4241618;28;20162;-58
2023/04/03 03:29:37;;;;;;;3.10;3.05;;;;;;;;;;4250337;28;20052;-58
2023/04/03 03:31:58;;;;;;;2.70;2.65;;;;;;;;;;4248494;28;20066;-58
2023/04/03 03:34:18;;;;;;;2.70;2.70;;;;;;;;;;4245233;28;20072;-58
2023/04/03 03:36:38;;;;;;;2.33;2.33;;;;;;;;;;4247786;28;20149;-58
2023/04/03 03:38:58;;;;;;;2.95;2.95;;;;;;;;;;4249246;28;20070;-58
2023/04/03 03:41:19;;;;;;;3.22;3.13;;;;;;;;;;4248063;28;20050;-58
2023/04/03 03:43:39;;;;;;;2.63;2.63;;;;;;;;;;4246148;28;20370;-59
2023/04/03 03:46:00;;;;;;;2.60;2.50;;;;;;;;;;4246091;28;20050;-58
2023/04/03 03:48:20;;;;;;;2.75;2.60;;;;;;;;;;4248894;28;20349;-58
2023/04/03 03:50:40;;;;;;;2.60;2.50;;;;;;;;;;4246877;28;20081;-58
2023/04/03 03:53:01;;;;;;;3.83;3.25;;;;;;;;;;4244912;28;20100;-58
2023/04/03 03:55:21;;;;;;;2.45;2.33;;;;;;;;;;4246228;28;20038;-58
2023/04/03 03:57:42;;;;;;;3.33;3.20;;;;;;;;;;4242665;28;20215;-58
2023/04/03 04:00:03;;;;;;;2.40;2.40;;;;;;;;;;4248032;28;20057;-58
2023/04/03 04:02:23;;;;;;;2.90;2.90;;;;;;;;;;4242142;28;20381;-58
2023/04/03 04:04:43;;;;;;;2.63;2.63;;;;;;;;;;4245688;28;20230;-58
2023/04/03 04:07:03;;;;;;;2.28;2.28;;;;;;;;;;4241768;28;20079;-59
2023/04/03 04:09:24;;;;;;;2.72;2.72;;;;;;;;;;4248703;28;20058;-58
2023/04/03 04:11:44;;;;;;;3.13;2.95;;;;;;;;;;4246968;28;20384;-58
2023/04/03 04:14:05;;;;;;;2.63;2.53;;;;;;;;;;4249033;28;20054;-59
2023/04/03 04:16:25;;;;;;;2.95;2.95;;;;;;;;;;4244184;28;20279;-59
2023/04/03 04:18:45;;;;;;;4.28;3.38;;;;;;;;;;4249433;28;20369;-58
2023/04/03 04:21:05;;;;;;;3.20;3.20;;;;;;;;;;4249474;28;20074;-58
2023/04/03 04:23:25;;;;;;;2.95;2.85;;;;;;;;;;4250668;28;20055;-59
2023/04/03 04:25:46;;;;;;;2.65;2.65;;;;;;;;;;4251378;28;20054;-58
2023/04/03 04:28:06;;;;;;;2.65;2.55;;;;;;;;;;4251201;28;20273;-58
2023/04/03 04:30:27;;;;;;;2.80;2.70;;;;;;;;;;4245820;28;20153;-58
2023/04/03 04:32:47;;;;;;;2.78;2.67;;;;;;;;;;4247883;28;20042;-58
2023/04/03 04:35:07;;;;;;;2.45;2.33;;;;;;;;;;4245734;28;20123;-58
2023/04/03 04:37:28;;;;;;;2.08;2.08;;;;;;;;;;4250581;28;20046;-58
2023/04/03 04:39:48;;;;;;;3.13;3.00;;;;;;;;;;4251078;28;20158;-58
2023/04/03 04:42:12;;;;;;;2.65;2.65;;;;;;;;;;4248414;28;20243;-59
2023/04/03 04:44:32;;;;;;;3.10;2.88;;;;;;;;;;4251298;28;20060;-58
2023/04/03 04:46:52;;;;;;;2.95;2.95;;;;;;;;;;4249960;28;20231;-58
2023/04/03 04:49:13;;;;;;;2.88;2.78;;;;;;;;;;4248627;28;20080;-58
2023/04/03 04:51:33;;;;;;;3.22;3.03;;;;;;;;;;4246928;28;20046;-58
2023/04/03 04:54:04;;;;;;;2.90;2.80;;;;;;;;;;4251780;28;20084;-58
2023/04/03 04:56:25;;;;;;;2.60;2.60;;;;;;;;;;4251115;28;20049;-59
2023/04/03 04:58:45;;;;;;;2.15;2.15;;;;;;;;;;4247559;28;20365;-59
2023/04/03 05:01:07;;;;;;;2.97;2.90;;;;;;;;;;4244570;28;20161;-58
2023/04/03 05:03:27;;;;;;;3.63;3.53;;;;;;;;;;4248803;28;20046;-58
2023/04/03 05:05:47;;;;;;;2.78;2.78;;;;;;;;;;4249468;28;20051;-58
2023/04/03 05:08:08;;;;;;;3.03;3.03;;;;;;;;;;4248114;28;20073;-59
2023/04/03 05:10:28;;;;;;;5.38;2.88;;;;;;;;;;4250391;28;20078;-58
2023/04/03 05:12:48;;;;;;;3.30;3.20;;;;;;;;;;4243682;28;20467;-58
2023/04/03 05:15:09;;;;;;;2.92;2.83;;;;;;;;;;4246331;28;20051;-58
2023/04/03 05:17:29;;;;;;;3.25;2.95;;;;;;;;;;4250912;28;20046;-58
2023/04/03 05:19:49;;;;;;;2.70;2.65;;;;;;;;;;4245019;28;20047;-58
2023/04/03 05:22:09;;;;;;;3.10;2.90;;;;;;;;;;4243641;28;20235;-58
2023/04/03 05:24:30;;;;;;;2.38;2.30;;;;;;;;;;4248216;28;20080;-60
2023/04/03 05:26:50;;;;;;;2.45;2.28;;;;;;;;;;4250201;28;20253;-60
2023/04/03 05:29:10;;;;;;;2.85;2.65;;;;;;;;;;4245151;28;20119;-60
2023/04/03 05:31:31;;;;;;;2.53;2.42;;;;;;;;;;4245136;28;20047;-60
2023/04/03 05:33:51;;;;;;;2.90;2.88;;;;;;;;;;4248936;28;20103;-60
2023/04/03 05:36:12;;;;;;;3.45;3.15;;;;;;;;;;4243020;28;20323;-60
2023/04/03 05:38:32;;;;;;;2.60;2.50;;;;;;;;;;4246805;28;20054;-60
2023/04/03 05:40:52;;;;;;;3.45;3.17;;;;;;;;;;4250634;28;20085;-59
2023/04/03 05:43:13;;;;;;;2.55;2.30;;;;;;;;;;4248823;28;20045;-59
2023/04/03 05:45:33;;;;;;;2.28;2.17;;;;;;;;;;4244134;28;20081;-60
2023/04/03 05:47:54;;;;;;;2.45;2.25;;;;;;;;;;4248416;28;20230;-59
2023/04/03 05:50:14;;;;;;;3.55;3.33;;;;;;;;;;4248525;28;20051;-60
2023/04/03 05:52:40;;;;;;;2.75;2.55;;;;;;;;;;4243391;28;20088;-60
2023/04/03 05:55:00;;;;;;;3.13;2.97;;;;;;;;;;4245106;28;20038;-60
2023/04/03 05:57:20;;;;;;;2.50;2.40;;;;;;;;;;4246338;28;20051;-60
2023/04/03 05:59:41;;;;;;;2.97;2.85;;;;;;;;;;4245311;28;20042;-60
2023/04/03 06:02:02;;;;;;;3.17;2.97;;;;;;;;;;4242735;28;20050;-60
2023/04/03 06:04:23;;;;;;;2.95;2.92;;;;;;;;;;4250012;28;20096;-61
2023/04/03 06:06:54;;;;;;;3.35;3.22;;;;;;;;;;4245581;28;20119;-60
2023/04/03 06:09:15;;;;;;;2.80;2.58;;;;;;;;;;4242901;28;20115;-60
2023/04/03 06:11:35;;;;;;;2.50;2.40;;;;;;;;;;4243524;28;20084;-60
2023/04/03 06:13:56;;;;;;;3.40;2.50;;;;;;;;;;4244197;28;20080;-60
2023/04/03 06:16:17;;;;;;;3.25;3.15;;;;;;;;;;4243628;28;20053;-60
2023/04/03 06:18:38;;;;;;;2.22;2.20;;;;;;;;;;4242695;28;20394;-60
2023/04/03 06:20:58;;;;;;;3.20;3.00;;;;;;;;;;4242431;28;20091;-60
2023/04/03 06:23:18;;;;;;;3.13;3.03;;;;;;;;;;4245504;28;20047;-60
2023/04/03 06:25:39;;;;;;;2.33;2.33;;;;;;;;;;4242236;28;20046;-60
2023/04/03 06:27:59;;;;;;;2.88;2.88;;;;;;;;;;4247291;28;20070;-60
2023/04/03 06:30:20;;;;;;;3.35;2.53;;;;;;;;;;4248286;28;20389;-60
2023/04/03 06:32:41;;;;;;;4.95;3.38;;;;;;;;;;4251051;28;20038;-59
2023/04/03 06:35:01;;;;;;;3.83;3.53;;;;;;;;;;4246393;28;20034;-60
2023/04/03 06:37:25;;;;;;;3.57;3.47;;;;;;;;;;4248772;28;20111;-60
2023/04/03 06:39:46;;;;;;;3.00;2.88;;;;;;;;;;4247451;28;20064;-59
2023/04/03 06:42:06;;;;;;;3.20;3.10;;;;;;;;;;4250663;28;20077;-60
2023/04/03 06:44:26;;;;;;;2.60;2.60;;;;;;;;;;4250438;28;20305;-60
2023/04/03 06:46:46;;;;;;;2.40;2.30;;;;;;;;;;4249855;28;20369;-60
2023/04/03 06:49:07;;;;;;;2.92;2.45;;;;;;;;;;4243501;28;20038;-60
2023/04/03 06:51:29;;;;;;;2.97;2.78;;;;;;;;;;4249463;28;20050;-60
2023/04/03 06:53:50;;;;;;;2.55;2.45;;;;;;;;;;4241960;28;20270;-60
2023/04/03 06:56:11;;;;;;;3.63;2.50;;;;;;;;;;4248386;28;20076;-60
2023/04/03 06:58:31;;;;;;;2.38;2.35;;;;;;;;;;4249529;28;20050;-59
2023/04/03 07:00:51;;;;;;;2.92;2.90;;;;;;;;;;4244139;28;20080;-60
2023/04/03 07:03:11;;;;;;;3.30;3.22;;;;;;;;;;4250378;28;20136;-60
2023/04/03 07:05:31;;;;;;;3.10;3.00;;;;;;;;;;4246929;28;20046;-60
2023/04/03 07:07:52;;;;;;;2.40;2.30;;;;;;;;;;4231589;28;20255;-60
2023/04/03 07:10:12;;;;;;;4.82;2.90;;;;;;;;;;4244713;28;20115;-60
2023/04/03 07:12:33;;;;;;;3.53;3.42;;;;;;;;;;4244107;28;20081;-60
2023/04/03 07:14:53;;;;;;;3.13;2.85;;;;;;;;;;4247569;28;20370;-60
2023/04/03 07:17:13;;;;;;;2.92;2.60;;;;;;;;;;4246449;28;20081;-60
2023/04/03 07:19:33;;;;;;;2.90;2.80;;;;;;;;;;4239885;28;20076;-60
2023/04/03 07:21:54;;;;;;;2.53;2.33;;;;;;;;;;4243369;28;20101;-60
2023/04/03 07:24:14;;;;;;;2.70;2.58;;;;;;;;;;4250014;28;20058;-60
2023/04/03 07:26:36;;;;;;;2.78;2.78;;;;;;;;;;4245342;28;20080;-60
2023/04/03 07:28:57;;;;;;;3.28;3.17;;;;;;;;;;4249618;28;20077;-60
2023/04/03 07:31:18;;;;;;;3.15;2.53;;;;;;;;;;4244578;28;20054;-60
2023/04/03 07:33:38;;;;;;;2.95;2.88;;;;;;;;;;4243794;28;20049;-60
2023/04/03 07:35:58;;;;;;;2.97;2.97;;;;;;;;;;4246356;28;20396;-60
2023/04/03 07:38:19;;;;;;;3.20;3.20;;;;;;;;;;4243885;28;20062;-60
2023/04/03 07:40:39;;;;;;;3.63;3.50;;;;;;;;;;4247333;28;20273;-60
2023/04/03 07:42:59;;;;;;;2.90;2.70;;;;;;;;;;4253576;27;20042;-60
2023/04/03 07:45:19;;;;;;;3.00;2.85;;;;;;;;;;4253099;28;20117;-60
2023/04/03 07:47:40;;;;;;;2.38;2.28;;;;;;;;;;4249614;28;20046;-60
2023/04/03 07:50:01;;;;;;;2.63;2.53;;;;;;;;;;4247540;28;20104;-60
2023/04/03 07:52:21;;;;;;;1.98;1.88;;;;;;;;;;4243237;28;20050;-60
2023/04/03 07:54:41;;;;;;;2.22;2.13;;;;;;;;;;4245275;28;20066;-60
2023/04/03 07:57:02;;;;;;;3.80;3.00;;;;;;;;;;4247553;28;20065;-59
2023/04/03 07:59:22;;;;;;;4.78;2.47;;;;;;;;;;4248499;28;20242;-60
2023/04/03 08:01:43;;;;;;;2.42;2.38;;;;;;;;;;4248686;28;20099;-60
2023/04/03 08:04:04;;;;;;;2.33;2.10;;;;;;;;;;4246768;28;20081;-60
2023/04/03 08:06:25;;;;;;;4.22;3.58;;;;;;;;;;4248452;28;20242;-60
2023/04/03 08:09:05;;;;;;;2.90;2.85;;;;;;;;;;4248185;28;20234;-60
2023/04/03 08:11:26;;;;;;;2.28;2.17;;;;;;;;;;4248538;28;20050;-59
2023/04/03 08:13:46;;;;;;;2.78;2.58;;;;;;;;;;4246740;28;20042;-60
2023/04/03 08:16:08;;;;;;;2.88;2.78;;;;;;;;;;4251355;28;20056;-59
2023/04/03 08:18:28;;;;;;;3.60;3.30;;;;;;;;;;4245222;28;20050;-60
2023/04/03 08:20:48;;;;;;;2.28;2.28;;;;;;;;;;4246872;28;20360;-59
2023/04/03 08:23:09;;;;;;;2.55;2.35;;;;;;;;;;4248195;27;20270;-60
2023/04/03 08:25:29;;;;;;;2.40;2.30;;;;;;;;;;4248001;28;20361;-60
2023/04/03 08:27:49;;;;;;;2.30;2.30;;;;;;;;;;4244407;28;20088;-60
2023/04/03 08:30:10;;;;;;;2.17;2.17;;;;;;;;;;4253254;27;20039;-60
2023/04/03 08:32:30;;;;;;;2.72;2.63;;;;;;;;;;4244250;28;20089;-60
2023/04/03 08:34:51;;;;;;;2.05;2.05;;;;;;;;;;4251282;28;20231;-60
2023/04/03 08:37:11;;;;;;;2.42;2.38;;;;;;;;;;4244093;28;20070;-60
2023/04/03 08:39:31;;;;;;;3.83;3.53;;;;;;;;;;4249561;28;20041;-60
2023/04/03 08:41:51;;;;;;;3.25;2.95;;;;;;;;;;4244844;28;20235;-60
2023/04/03 08:44:11;;;;;;;2.05;2.05;;;;;;;;;;4232217;28;20358;-60
2023/04/03 08:46:40;;;;;;;1.80;1.80;;;;;;;;;;4243525;28;20092;-59
2023/04/03 08:49:01;;;;;;;2.53;2.42;;;;;;;;;;4250633;28;20070;-60
2023/04/03 08:51:22;;;;;;;2.95;2.85;;;;;;;;;;4251804;28;20096;-60
2023/04/03 08:53:46;;;;;;;3.03;2.30;;;;;;;;;;4241926;28;20108;-60
2023/04/03 08:56:09;;;;;;;2.55;2.20;;;;;;;;;;4244091;28;20234;-60
2023/04/03 08:58:31;;;;;;;2.58;2.58;;;;;;;;;;4247584;28;20054;-60
2023/04/03 09:00:52;;;;;;;2.65;2.45;;;;;;;;;;4248098;28;20358;-60
2023/04/03 09:03:14;;;;;;;3.03;2.65;;;;;;;;;;4234642;28;20062;-60
2023/04/03 09:05:42;;;;;;;2.08;1.98;;;;;;;;;;4243026;28;20054;-60
2023/04/03 09:08:03;;;;;;;3.13;2.53;;;;;;;;;;4247954;28;20271;-60
2023/04/03 09:10:25;;;;;;;2.70;2.20;;;;;;;;;;4246695;28;20265;-59
2023/04/03 09:12:48;;;;;;;2.60;2.50;;;;;;;;;;4246044;28;20050;-60
2023/04/03 09:15:20;;;;;;;1.77;1.77;;;;;;;;;;4245104;28;20046;-60
2023/04/03 09:18:03;;;;;;;1.80;1.80;;;;;;;;;;4244789;28;20054;-60
2023/04/03 09:20:42;;;;;;;1.80;1.80;;;;;;;;;;4244812;28;20387;-59
2023/04/03 09:23:11;;;;;;;1.80;1.80;;;;;;;;;;4246548;28;20047;-60
2023/04/03 09:25:37;;;;;;;2.05;2.05;;;;;;;;;;4244329;28;20144;-59
2023/04/03 09:27:57;;;;;;;2.03;1.90;;;;;;;;;;4251588;28;20054;-60
2023/04/03 09:30:23;;;;;;;1.70;1.70;;;;;;;;;;4245598;28;20231;-59
2023/04/03 09:32:46;;;;;;;2.53;2.40;;;;;;;;;;4204114;28;20070;-60
2023/04/03 09:35:15;;;;;;;2.20;2.10;;;;;;;;;;4250255;28;20357;-59
2023/04/03 09:37:46;;;;;;;2.90;2.13;;;;;;;;;;4247387;28;20118;-60
2023/04/03 09:40:27;;;;;;;1.77;1.77;;;;;;;;;;4248585;28;20104;-60
2023/04/03 09:42:48;;;;;;;2.85;2.75;;;;;;;;;;4240480;28;20063;-59
2023/04/03 09:45:30;;;;;;;5.28;3.90;;;;;;;;;;4250075;28;20042;-60
2023/04/03 09:48:04;;;;;;;1.67;1.67;;;;;;;;;;4245953;28;20057;-60
2023/04/03 09:50:29;;;;;;;2.08;2.08;;;;;;;;;;4248457;28;20134;-59
2023/04/03 09:52:51;;;;;;;2.10;2.10;;;;;;;;;;4242592;28;20047;-60
2023/04/03 09:55:37;;;;;;;1.88;1.88;;;;;;;;;;4246463;28;20046;-59
2023/04/03 09:57:59;;;;;;;2.08;2.08;;;;;;;;;;4245997;28;20053;-59
2023/04/03 10:00:21;;;;;;;2.10;2.00;;;;;;;;;;4249349;28;20054;-59
2023/04/03 10:02:42;;;;;;;2.22;2.22;;;;;;;;;;4245308;28;20050;-60
2023/04/03 10:05:04;;;;;;;4.13;2.40;;;;;;;;;;4238149;28;20119;-60
2023/04/03 10:07:29;;;;;;;3.85;2.15;;;;;;;;;;4234111;28;20069;-59
2023/04/03 10:09:55;;;;;;;1.50;1.50;;;;;;;;;;4246848;28;20140;-61
2023/04/03 10:12:20;;;;;;;1.88;1.88;;;;;;;;;;4242570;28;20065;-60
2023/04/03 10:14:55;;;;;;;1.92;1.92;;;;;;;;;;4245429;28;20077;-59
2023/04/03 10:17:19;;;;;;;1.52;1.45;;;;;;;;;;4245158;28;20054;-60
2023/04/03 10:19:46;;;;;;;1.75;1.65;;;;;;;;;;4242253;28;20047;-60
2023/04/03 10:22:17;;;;;;;2.20;2.10;;;;;;;;;;4243777;28;20062;-60
2023/04/03 10:24:44;;;;;;;4.25;3.90;;;;;;;;;;4244199;28;20037;-60
2023/04/03 10:27:08;;;;;;;3.72;3.05;;;;;;;;;;4243727;28;20373;-59
2023/04/03 10:29:36;;;;;;;2.50;2.50;;;;;;;;;;4243184;28;20051;-59
2023/04/03 10:32:15;;;;;;;4.22;4.03;;;;;;;;;;4243060;28;20119;-59
2023/04/03 10:34:41;;;;;;;1.45;1.45;;;;;;;;;;4246790;28;20039;-59
2023/04/03 10:37:06;;;;;;;2.00;1.90;;;;;;;;;;4242112;27;20046;-60
2023/04/03 10:39:40;;;;;;;1.67;1.67;;;;;;;;;;4242961;28;20088;-59
2023/04/03 10:42:00;;;;;;;2.95;2.85;;;;;;;;;;4241859;28;20081;-59
2023/04/03 10:44:56;;;;;;;1.60;1.60;;;;;;;;;;4248512;28;20962;-60
2023/04/03 10:47:22;;;;;;;4.00;1.90;;;;;;;;;;4253719;28;20073;-60
2023/04/03 10:50:06;;;;;;;2.50;2.38;;;;;;;;;;4253228;28;20095;-60
2023/04/03 10:52:40;;;;;;;2.13;1.95;;;;;;;;;;4223896;28;20084;-60
2023/04/03 10:55:01;;;;;;;1.40;1.40;;;;;;;;;;4244057;28;20046;-60
2023/04/03 10:57:24;;;;;;;1.70;1.70;;;;;;;;;;4244734;28;20050;-60
2023/04/03 10:59:47;;;;;;;2.50;1.73;;;;;;;;;;4249808;28;20071;-59
2023/04/03 11:02:12;;;;;;;3.38;3.08;;;;;;;;;;4242093;28;20354;-60
2023/04/03 11:04:34;;;;;;;2.63;2.53;;;;;;;;;;4246394;28;20092;-60
2023/04/03 11:07:15;;;;;;;2.45;1.90;;;;;;;;;;4247174;28;20140;-60
2023/04/03 11:09:38;;;;;;;5.57;2.63;;;;;;;;;;4246570;28;20051;-60
2023/04/03 11:12:04;;;;;;;2.35;2.17;;;;;;;;;;4241814;28;20378;-60
2023/04/03 11:14:34;;;;;;;4.10;3.85;;;;;;;;;;4246182;28;20082;-60
2023/04/03 11:17:00;;;;;;;1.25;1.25;;;;;;;;;;4246087;28;20400;-60
2023/04/03 11:19:24;;;;;;;1.20;1.20;;;;;;;;;;4248320;28;20115;-60
2023/04/03 11:21:52;;;;;;;2.38;2.38;;;;;;;;;;4254561;28;20396;-60
2023/04/03 11:24:17;;;;;;;2.35;2.25;;;;;;;;;;4248439;28;20050;-59
2023/04/03 11:26:41;;;;;;;2.13;2.13;;;;;;;;;;4250174;28;20284;-59
2023/04/03 11:29:12;;;;;;;1.80;1.70;;;;;;;;;;4247901;28;20038;-59
2023/04/03 11:31:37;;;;;;;13.85;10.07;;;;;;;;;;4253769;28;20386;-59
2023/04/03 11:34:04;;;;;;;2.60;2.50;;;;;;;;;;4245313;28;20137;-59
2023/04/03 11:36:27;;;;;;;1.88;1.55;;;;;;;;;;4246976;28;20392;-60
2023/04/03 11:38:56;;;;;;;1.98;1.50;;;;;;;;;;4248319;28;20051;-61
2023/04/03 11:41:16;;;;;;;1.65;1.15;;;;;;;;;;4245564;28;20072;-60
2023/04/03 11:44:00;;;;;;;3.22;1.30;;;;;;;;;;4245456;28;20043;-60
2023/04/03 11:46:20;;;;;;;;;;;;;;;;;;4216845;28;20047;-60
2023/04/03 11:48:45;;;;;;;1.92;1.48;;;;;;;;;;4251490;28;19922;-60
2023/04/03 11:51:20;;;;;;;1.50;1.40;;;;;;;;;;4249336;28;20047;-60
2023/04/03 11:53:41;;;;;;;1.67;1.42;;;;;;;;;;4232704;28;20089;-60
2023/04/03 11:56:21;;;;;;;1.30;1.20;;;;;;;;;;4246281;28;20239;-60
2023/04/03 11:59:02;;;;;;;1.50;1.45;;;;;;;;;;4249734;28;20046;-60
2023/04/03 12:01:41;;;;;;;1.30;1.20;;;;;;;;;;4249726;28;20081;-60
2023/04/03 12:04:09;;;;;;;1.70;1.60;;;;;;;;;;4247586;28;20140;-60
2023/04/03 12:06:32;;;;;;;1.70;1.20;;;;;;;;;;4249204;28;20074;-60
2023/04/03 12:08:56;;;;;;;1.35;1.35;;;;;;;;;;4250199;28;20069;-60
2023/04/03 12:11:22;;;;;;;1.10;1.10;;;;;;;;;;4248328;28;20038;-60
2023/04/03 12:13:43;;;;;;;1.50;1.40;;;;;;;;;;4248828;28;20049;-60
2023/04/03 12:16:04;;;;;;;1.20;1.20;;;;;;;;;;4250449;28;20096;-60
2023/04/03 12:18:42;;;;;;;1.98;1.88;;;;;;;;;;4253475;28;20086;-60
2023/04/03 12:21:03;;;;;;;1.40;1.30;;;;;;;;;;4247742;28;20393;-60
2023/04/03 12:23:28;;;;;;;1.40;1.40;;;;;;;;;;4247798;28;20247;-61
2023/04/03 12:25:50;;;;;;;1.40;1.40;;;;;;;;;;4246735;28;20050;-60
2023/04/03 12:28:11;;;;;;;2.60;1.52;;;;;;;;;;4248046;28;20093;-60
2023/04/03 12:30:31;;;;;;;1.20;1.20;;;;;;;;;;4245268;28;20385;-60
2023/04/03 12:32:57;;;;;;;1.20;1.20;;;;;;;;;;4250468;28;20062;-60
2023/04/03 12:35:37;;;;;;;1.42;1.40;;;;;;;;;;4245237;28;20373;-60
2023/04/03 12:38:16;;;;;;;1.63;1.52;;;;;;;;;;4248947;28;20077;-60
2023/04/03 12:40:37;;;;;;;2.83;1.50;;;;;;;;;;4245226;28;20084;-58
2023/04/03 12:43:17;;;;;;;1.10;1.10;;;;;;;;;;4249616;28;20050;-58
2023/04/03 12:45:41;;;;;;;1.30;1.20;;;;;;;;;;4243617;28;20041;-57
2023/04/03 12:48:02;;;;;;;1.40;1.40;;;;;;;;;;4247214;28;20373;-58
2023/04/03 12:50:23;;;;;;;1.30;1.30;;;;;;;;;;4249913;28;20391;-58
2023/04/03 12:52:50;;;;;;;1.30;1.30;;;;;;;;;;4245430;28;20047;-58
2023/04/03 12:55:18;;;;;;;1.30;1.30;;;;;;;;;;4245981;28;20115;-58
2023/04/03 12:57:38;;;;;;;1.20;1.20;;;;;;;;;;4235508;28;20090;-58
2023/04/03 12:59:59;;;;;;;1.55;1.40;;;;;;;;;;4243830;28;20231;-58
2023/04/03 13:02:23;;;;;;;1.20;1.20;;;;;;;;;;4248430;28;20139;-58
2023/04/03 13:04:45;;;;;;;1.40;1.40;;;;;;;;;;4247095;28;20043;-57
2023/04/03 13:07:06;;;;;;;1.30;1.30;;;;;;;;;;4245829;28;20128;-58
2023/04/03 13:09:32;;;;;;;3.00;1.80;;;;;;;;;;4242681;28;20038;-58
2023/04/03 13:11:56;;;;;;;1.40;1.30;;;;;;;;;;4249188;28;20046;-58
2023/04/03 13:14:22;;;;;;;1.10;1.10;;;;;;;;;;4249195;28;20074;-57
2023/04/03 13:17:12;;;;;;;1.23;1.23;;;;;;;;;;4246070;27;20393;-57
2023/04/03 13:19:32;;;;;;;1.65;1.58;;;;;;;;;;4248104;28;20034;-58
2023/04/03 13:22:15;;;;;;;1.52;1.52;;;;;;;;;;4248425;28;20403;-58
2023/04/03 13:24:39;;;;;;;2.08;1.27;;;;;;;;;;4246785;28;20069;-58
2023/04/03 13:27:00;;;;;;;2.13;1.27;;;;;;;;;;4248054;28;20050;-58
2023/04/03 13:29:22;;;;;;;1.42;1.38;;;;;;;;;;4246350;28;20107;-58
2023/04/03 13:31:53;;;;;;;1.10;1.05;;;;;;;;;;4245129;28;20065;-58
2023/04/03 13:34:17;;;;;;;3.97;1.50;;;;;;;;;;4247833;28;20050;-58
2023/04/03 13:36:40;;;;;;;1.48;1.38;;;;;;;;;;4244296;27;20043;-58
2023/04/03 13:39:02;;;;;;;1.70;1.60;;;;;;;;;;4230088;28;20276;-58
2023/04/03 13:41:29;;;;;;;1.58;1.48;;;;;;;;;;4247119;28;20219;-58
2023/04/03 13:43:49;;;;;;;1.48;1.40;;;;;;;;;;4251977;28;20361;-58
2023/04/03 13:46:13;;;;;;;2.25;1.25;;;;;;;;;;4242445;28;20089;-58
2023/04/03 13:48:38;;;;;;;1.13;1.13;;;;;;;;;;4246573;28;20441;-58
2023/04/03 13:51:01;;;;;;;1.58;1.45;;;;;;;;;;4249318;28;20053;-58
2023/04/03 13:53:21;;;;;;;1.42;1.35;;;;;;;;;;4249906;28;20099;-58
2023/04/03 13:56:01;;;;;;;1.50;1.40;;;;;;;;;;4241903;28;20054;-58
2023/04/03 13:58:24;;;;;;;1.20;1.20;;;;;;;;;;4215268;28;20066;-58
2023/04/03 14:00:55;;;;;;;1.40;1.30;;;;;;;;;;4246972;28;20362;-58
2023/04/03 14:03:23;;;;;;;1.13;1.13;;;;;;;;;;4235301;28;20357;-58
2023/04/03 14:05:45;;;;;;;1.40;1.40;;;;;;;;;;4243229;28;20046;-58
2023/04/03 14:08:07;;;;;;;1.50;1.50;;;;;;;;;;4245624;28;20074;-58
2023/04/03 14:10:27;;;;;;;1.58;1.23;;;;;;;;;;4249099;28;20057;-58
2023/04/03 14:12:48;;;;;;;2.15;1.65;;;;;;;;;;4249086;28;20042;-58
2023/04/03 14:15:20;;;;;;;1.52;1.52;;;;;;;;;;4245672;28;20103;-57
2023/04/03 14:17:40;;;;;;;1.30;1.20;;;;;;;;;;4247296;28;20038;-58
2023/04/03 14:20:01;;;;;;;1.40;1.40;;;;;;;;;;4247890;28;20236;-58